Información del aeropuerto LEST

Información de pista
Pista 17 Longitud 10499 ft Anchura 148 ft
Elevación 1170 ft Umbral 394 ft Rumbo 166
Pista 35 Longitud 10499 ft Anchura 148 ft
Elevación 1196 ft Umbral 0 ft Rumbo 346
Frecuencias del aeropuerto
Tipo APP Nombre APP Frecuencia 118.2 MHZ
Tipo GND Nombre GND Frecuencia 121.7 MHZ
Tipo TWR Nombre TWR Frecuencia 118.75 MHZ
Radioayudas del aeropuerto
Tipo NDB Nombre Santiago Frecuencia 417 KHZ
Tipo VOR-DME Nombre Santiago Frecuencia 116400 KHZ
Información meteorológica del aeropuerto y NOTAM
ADDS - METARS form results

(1655 UTC 29 November 2021)
Data provider http://aviationweather.gov/metar/data/
 
METAR text: LEST 291630Z VRB02KT 9999 FEW024 BKN038 10/08 Q1023 NOSIG
Conditions at: LEST (SANTIAGO/LABACOL, ES) observed 1630 UTC 29 November 2021
Temperature: 10.0°C (50°F)
Dewpoint: 8.0°C (46°F) [RH = 87%]
Pressure (altimeter): 30.21 inches Hg (1023.0 mb)
Winds: variable direction winds at 2 MPH (2 knots; 1.0 m/s)
Visibility: 6 or more miles (10+ km)
Ceiling: 3800 feet AGL
Clouds: few clouds at 2400 feet AGL
broken clouds at 3800 feet AGL
Weather: no significant weather observed at this time

METAR text: LEST 291600Z 27003KT 210V310 9999 FEW012 BKN036 10/08 Q1023 NOSIG
Conditions at: LEST (SANTIAGO/LABACOL, ES) observed 1600 UTC 29 November 2021
Temperature: 10.0°C (50°F)
Dewpoint: 8.0°C (46°F) [RH = 87%]
Pressure (altimeter): 30.21 inches Hg (1023.0 mb)
Winds: from the W (270 degrees) at 3 MPH (3 knots; 1.5 m/s)
Visibility: 6 or more miles (10+ km)
Ceiling: 3600 feet AGL
Clouds: few clouds at 1200 feet AGL
broken clouds at 3600 feet AGL
Weather: no significant weather observed at this time

Forecast for: LEST (SANTIAGO/LABACOL, ES)
Text: TAF LEST 291100Z 2912/3012 27005KT 9000 SCT010 BKN020 TX11/2914Z TN06/3008Z
Forecast period: 1200 UTC 29 November 2021 to 1200 UTC 30 November 2021
Forecast type: FROM: standard forecast or significant change
Winds: from the W (270 degrees) at 6 MPH (5 knots; 2.6 m/s)
Visibility: 6 miles (9 km)
Ceiling: 2000 feet AGL
Clouds: scattered clouds at 1000 feet AGL
broken clouds at 2000 feet AGL
Weather: no significant weather forecast for this period
Text: TEMPO 2912/2915 3000 -RA BR BKN010
Forecast period: 1200 to 1500 UTC 29 November 2021
Forecast type: TEMPORARY: The following changes expected for less than half the time period
Visibility: 1.86 miles (2.99 km)
Ceiling: 1000 feet AGL
Clouds: broken clouds at 1000 feet AGL
Weather: -RA BR  (light rain, mist)
Text: PROB40
Forecast period: 0000 to 0800 UTC 30 November 2021
Forecast type: TEMPORARY: The following changes expected for less than half the time period
Visibility: 1.86 miles (2.99 km)
Ceiling: 500 feet AGL
Clouds: broken clouds at 500 feet AGL
Weather: BR  (mist)